createdAt,value
2022-10-30T00:01:04.518Z,38.55
2022-10-30T00:03:31.469Z,42.03
2022-10-30T00:05:58.389Z,36.35
2022-10-30T00:08:28.915Z,39.75
2022-10-30T00:10:56.169Z,40.80
2022-10-30T00:13:23.084Z,40.97
2022-10-30T00:15:52.751Z,45.40
2022-10-30T00:18:21.061Z,42.45
2022-10-30T00:20:48.573Z,40.55
2022-10-30T00:23:15.808Z,40.92
2022-10-30T00:25:42.588Z,45.03
2022-10-30T00:28:09.855Z,40.65
2022-10-30T00:30:37.070Z,35.95
2022-10-30T00:33:04.981Z,37.05
2022-10-30T00:35:32.049Z,38.65
2022-10-30T00:38:01.065Z,35.15
2022-10-30T00:40:28.683Z,38.80
2022-10-30T00:42:55.880Z,34.38
2022-10-30T00:45:22.779Z,36.03
2022-10-30T00:47:56.779Z,39.05
2022-10-30T00:50:31.663Z,32.40
2022-10-30T00:53:13.103Z,36.40
2022-10-30T00:55:47.727Z,34.20
2022-10-30T00:58:20.492Z,33.65
2022-10-30T01:00:53.941Z,31.73
2022-10-30T01:03:23.123Z,31.38
2022-10-30T01:05:57.607Z,26.33
2022-10-30T01:08:24.934Z,26.73
2022-10-30T01:10:52.853Z,29.95
2022-10-30T01:13:23.000Z,30.27
2022-10-30T01:16:39.649Z,34.30
2022-10-30T01:19:42.823Z,32.05
2022-10-30T01:22:52.812Z,29.10
2022-10-30T01:26:13.580Z,25.02
2022-10-30T01:29:07.220Z,24.02
2022-10-30T01:31:52.525Z,23.20
2022-10-30T01:34:34.520Z,24.53
2022-10-30T01:37:22.430Z,29.95
2022-10-30T01:39:50.465Z,24.45
2022-10-30T01:42:57.690Z,26.00
2022-10-30T01:49:13.121Z,23.17
2022-10-30T01:51:51.592Z,27.85
2022-10-30T01:57:42.779Z,24.75
2022-10-30T02:00:16.030Z,24.17
2022-10-30T02:02:50.046Z,24.73
2022-10-30T02:05:48.402Z,31.67
2022-10-30T02:08:18.719Z,22.05
2022-10-30T02:10:48.047Z,23.25
2022-10-30T02:13:16.169Z,24.80
2022-10-30T02:15:44.237Z,26.90
2022-10-30T02:18:11.700Z,26.30
2022-10-30T02:20:39.983Z,25.88
2022-10-30T02:23:08.855Z,30.00
2022-10-30T02:25:36.235Z,24.83
2022-10-30T02:28:03.392Z,26.48
2022-10-30T02:30:31.478Z,24.08
2022-10-30T02:33:01.657Z,32.75
2022-10-30T02:35:30.436Z,23.55
2022-10-30T02:37:57.430Z,26.52
2022-10-30T02:40:26.282Z,25.95
2022-10-30T02:42:54.778Z,24.17
2022-10-30T02:45:22.227Z,25.08
2022-10-30T02:47:49.178Z,26.67
2022-10-30T02:50:17.218Z,30.95
2022-10-30T02:52:44.211Z,25.60
2022-10-30T02:55:11.044Z,26.35
2022-10-30T02:57:38.696Z,20.45
2022-10-30T03:00:07.176Z,21.08
2022-10-30T03:02:34.460Z,21.05
2022-10-30T03:05:01.405Z,18.27
2022-10-30T03:07:29.880Z,21.20
2022-10-30T03:09:56.904Z,22.08
2022-10-30T03:12:23.711Z,25.48
2022-10-30T03:14:52.314Z,19.27
2022-10-30T03:17:19.130Z,23.38
2022-10-30T03:19:47.391Z,26.75
2022-10-30T03:22:14.626Z,19.98
2022-10-30T03:24:41.487Z,23.77
2022-10-30T03:27:08.495Z,22.38
2022-10-30T03:29:35.681Z,21.00
2022-10-30T03:32:04.302Z,25.70
2022-10-30T03:34:36.303Z,22.40
2022-10-30T03:37:07.021Z,20.77
2022-10-30T03:39:34.278Z,22.20
2022-10-30T03:42:03.180Z,21.25
2022-10-30T03:44:30.079Z,23.95
2022-10-30T03:46:58.334Z,21.20
2022-10-30T03:49:31.947Z,23.90
2022-10-30T03:52:00.773Z,22.70
2022-10-30T03:54:27.597Z,23.23
2022-10-30T03:56:54.902Z,19.13
2022-10-30T03:59:25.606Z,22.88
2022-10-30T04:04:50.234Z,21.73
2022-10-30T04:07:17.239Z,21.25
2022-10-30T04:09:44.321Z,27.08
2022-10-30T04:12:11.212Z,22.38
2022-10-30T04:14:38.090Z,19.08
2022-10-30T04:17:06.322Z,20.60
2022-10-30T04:19:33.224Z,20.35
2022-10-30T04:22:00.376Z,20.98
2022-10-30T04:24:27.406Z,23.83
2022-10-30T04:26:56.090Z,22.63
2022-10-30T04:29:22.961Z,21.60
2022-10-30T04:31:50.216Z,21.30
2022-10-30T04:34:17.391Z,21.33
2022-10-30T04:36:44.304Z,23.00
2022-10-30T04:39:11.747Z,21.55
2022-10-30T04:41:38.957Z,17.92
2022-10-30T04:44:13.448Z,21.48
2022-10-30T04:46:40.504Z,19.98
2022-10-30T04:49:09.709Z,19.75
2022-10-30T04:51:37.069Z,19.45
2022-10-30T04:54:05.846Z,22.77
2022-10-30T04:56:35.425Z,20.45
2022-10-30T04:59:04.012Z,21.33
2022-10-30T05:01:31.661Z,19.20
2022-10-30T05:03:59.115Z,22.52
2022-10-30T05:06:32.625Z,18.95
2022-10-30T05:08:59.705Z,20.33
2022-10-30T05:11:39.427Z,24.58
2022-10-30T05:14:07.175Z,19.35
2022-10-30T05:16:34.572Z,21.13
2022-10-30T05:19:03.845Z,19.90
2022-10-30T05:21:31.924Z,21.88
2022-10-30T05:23:58.936Z,18.63
2022-10-30T05:26:27.868Z,20.27
2022-10-30T05:28:54.883Z,18.88
2022-10-30T05:31:22.001Z,21.88
2022-10-30T05:34:26.863Z,18.63
2022-10-30T05:36:54.395Z,20.92
2022-10-30T05:39:22.196Z,19.02
2022-10-30T05:41:50.998Z,20.10
2022-10-30T05:44:29.209Z,19.83
2022-10-30T05:47:08.010Z,18.23
2022-10-30T05:49:35.785Z,19.88
2022-10-30T05:52:05.760Z,19.58
2022-10-30T05:54:32.937Z,25.05
2022-10-30T05:57:22.635Z,28.02
2022-10-30T05:59:49.888Z,18.48
2022-10-30T06:02:17.473Z,20.95
2022-10-30T06:04:44.399Z,22.75
2022-10-30T06:07:13.799Z,22.50
2022-10-30T06:09:40.661Z,23.17
2022-10-30T06:12:23.232Z,17.23
2022-10-30T06:15:22.724Z,21.08
2022-10-30T06:17:50.515Z,21.95
2022-10-30T06:20:26.576Z,20.73
2022-10-30T06:23:05.890Z,17.05
2022-10-30T06:25:43.758Z,21.25
2022-10-30T06:28:21.098Z,18.05
2022-10-30T06:30:48.127Z,25.17
2022-10-30T06:33:15.202Z,22.00
2022-10-30T06:35:51.478Z,17.80
2022-10-30T06:38:19.932Z,22.08
2022-10-30T06:40:49.632Z,23.65
2022-10-30T06:43:28.102Z,17.70
2022-10-30T06:46:03.761Z,15.52
2022-10-30T06:48:32.272Z,20.80
2022-10-30T06:51:02.805Z,20.88
2022-10-30T06:53:33.132Z,17.83
2022-10-30T06:56:19.987Z,22.13
2022-10-30T06:59:10.931Z,26.65
2022-10-30T07:01:55.815Z,23.88
2022-10-30T07:07:18.901Z,19.88
2022-10-30T07:09:48.514Z,27.48
2022-10-30T07:12:18.761Z,22.00
2022-10-30T07:15:01.971Z,22.83
2022-10-30T07:17:34.787Z,20.00
2022-10-30T07:20:09.201Z,19.45
2022-10-30T07:22:39.457Z,17.75
2022-10-30T07:25:08.222Z,22.17
2022-10-30T07:27:54.632Z,20.52
2022-10-30T07:30:32.814Z,18.83
2022-10-30T07:36:03.803Z,22.23
2022-10-30T07:39:06.019Z,18.55
2022-10-30T07:41:40.143Z,17.88
2022-10-30T07:44:33.271Z,16.45
2022-10-30T07:47:25.535Z,20.88
2022-10-30T07:50:01.345Z,17.40
2022-10-30T07:55:34.700Z,22.58
2022-10-30T08:00:59.587Z,17.30
2022-10-30T08:03:31.799Z,14.85
2022-10-30T08:08:43.317Z,22.20
2022-10-30T08:11:29.391Z,14.32
2022-10-30T08:13:58.495Z,18.77
2022-10-30T08:16:25.476Z,15.35
2022-10-30T08:18:52.684Z,19.98
2022-10-30T08:21:23.358Z,22.25
2022-10-30T08:23:57.298Z,17.90
2022-10-30T08:26:27.731Z,19.80
2022-10-30T08:28:54.636Z,19.25
2022-10-30T08:31:23.354Z,19.98
2022-10-30T08:34:15.822Z,16.95
2022-10-30T08:37:05.087Z,17.60
2022-10-30T08:39:32.002Z,18.33
2022-10-30T08:42:16.377Z,19.58
2022-10-30T08:44:44.616Z,17.67
2022-10-30T08:47:39.764Z,18.88
2022-10-30T08:50:07.931Z,14.80
2022-10-30T08:52:35.151Z,15.05
2022-10-30T08:55:02.010Z,17.42
2022-10-30T08:57:36.115Z,18.40
2022-10-30T09:00:05.624Z,17.88
2022-10-30T09:03:05.247Z,16.83
2022-10-30T09:05:50.964Z,18.25
2022-10-30T09:08:18.002Z,13.35
2022-10-30T09:11:00.799Z,17.63
2022-10-30T09:13:28.461Z,15.38
2022-10-30T09:16:01.509Z,11.93
2022-10-30T09:18:30.560Z,13.45
2022-10-30T09:20:58.164Z,18.45
2022-10-30T09:23:25.676Z,21.02
2022-10-30T09:26:01.875Z,16.95
2022-10-30T09:28:41.473Z,16.42
2022-10-30T09:31:46.833Z,13.15
2022-10-30T09:34:17.787Z,18.95
2022-10-30T09:36:48.052Z,13.20
2022-10-30T09:39:15.742Z,16.77
2022-10-30T09:42:14.551Z,12.55
2022-10-30T09:45:28.530Z,12.80
2022-10-30T09:48:42.242Z,12.75
2022-10-30T09:51:29.355Z,11.73
2022-10-30T09:54:21.266Z,11.15
2022-10-30T09:57:27.336Z,13.25
2022-10-30T10:00:10.440Z,10.88
2022-10-30T10:03:17.177Z,12.85
2022-10-30T10:06:06.080Z,8.93
2022-10-30T10:09:09.392Z,10.98
2022-10-30T10:12:00.549Z,11.05
2022-10-30T10:14:37.314Z,12.38
2022-10-30T10:17:12.067Z,14.63
2022-10-30T10:19:47.935Z,14.27
2022-10-30T10:24:49.500Z,11.18
2022-10-30T10:27:59.135Z,13.70
2022-10-30T10:30:42.360Z,10.48
2022-10-30T10:33:30.251Z,11.93
2022-10-30T10:36:14.756Z,13.50
2022-10-30T10:38:52.972Z,8.82
2022-10-30T10:41:53.907Z,15.88
2022-10-30T10:44:42.318Z,10.38
2022-10-30T10:47:57.638Z,7.13
2022-10-30T10:50:34.609Z,12.27
2022-10-30T10:53:24.211Z,7.55
2022-10-30T10:55:54.987Z,8.93
2022-10-30T10:58:39.008Z,9.00
2022-10-30T11:01:13.708Z,11.52
2022-10-30T11:04:11.373Z,14.50
2022-10-30T11:06:49.651Z,14.50
2022-10-30T11:09:20.036Z,11.85
2022-10-30T11:11:49.234Z,12.65
2022-10-30T11:14:29.075Z,13.65
2022-10-30T11:17:32.765Z,10.32
2022-10-30T11:20:13.658Z,16.38
2022-10-30T11:22:47.355Z,8.27
2022-10-30T11:25:26.928Z,14.93
2022-10-30T11:28:04.430Z,8.65
2022-10-30T11:30:31.836Z,12.75
2022-10-30T11:32:59.662Z,16.58
2022-10-30T11:35:26.971Z,11.77
2022-10-30T11:38:19.223Z,8.30
2022-10-30T11:40:52.839Z,9.45
2022-10-30T11:43:23.621Z,7.55
2022-10-30T11:45:51.467Z,14.85
2022-10-30T11:48:33.650Z,12.70
2022-10-30T11:51:06.128Z,12.07
2022-10-30T11:53:42.040Z,9.20
2022-10-30T11:56:21.685Z,15.05
2022-10-30T11:58:57.717Z,8.20
2022-10-30T12:01:35.835Z,12.10
2022-10-30T12:04:32.913Z,13.02
2022-10-30T12:07:29.440Z,12.73
2022-10-30T12:09:59.728Z,10.80
2022-10-30T12:12:42.556Z,15.43
2022-10-30T12:15:20.772Z,12.57
2022-10-30T12:17:58.715Z,7.40
2022-10-30T12:20:26.884Z,10.45
2022-10-30T12:22:54.563Z,12.60
2022-10-30T12:25:32.463Z,7.50
2022-10-30T12:28:07.165Z,12.63
2022-10-30T12:30:49.883Z,13.73
2022-10-30T12:33:25.556Z,11.90
2022-10-30T12:36:23.467Z,13.88
2022-10-30T12:39:03.039Z,10.77
2022-10-30T12:41:40.943Z,11.63
2022-10-30T12:44:07.712Z,10.25
2022-10-30T12:46:47.443Z,9.30
2022-10-30T12:49:29.528Z,11.75
2022-10-30T12:52:05.835Z,7.53
2022-10-30T12:54:40.407Z,17.05
2022-10-30T12:57:18.733Z,14.80
2022-10-30T13:00:07.525Z,11.80
2022-10-30T13:03:09.109Z,10.43
2022-10-30T13:06:07.013Z,15.43
2022-10-30T13:08:55.240Z,13.43
2022-10-30T13:11:45.928Z,13.00
2022-10-30T13:14:20.643Z,19.25
2022-10-30T13:16:47.700Z,8.52
2022-10-30T13:19:14.958Z,16.00
2022-10-30T13:21:47.892Z,10.30
2022-10-30T13:24:31.791Z,9.63
2022-10-30T13:27:18.304Z,14.63
2022-10-30T13:30:17.285Z,10.77
2022-10-30T13:33:03.102Z,7.05
2022-10-30T13:35:52.147Z,8.95
2022-10-30T13:38:38.118Z,11.65
2022-10-30T13:41:36.001Z,12.27
2022-10-30T13:44:44.849Z,12.60
2022-10-30T13:47:27.864Z,9.75
2022-10-30T13:50:09.875Z,14.30
2022-10-30T13:52:39.987Z,10.05
2022-10-30T13:55:29.746Z,7.53
2022-10-30T13:58:17.317Z,12.07
2022-10-30T14:01:15.394Z,12.07
2022-10-30T14:04:02.366Z,16.95
2022-10-30T14:06:39.627Z,11.23
2022-10-30T14:09:43.478Z,15.15
2022-10-30T14:12:52.119Z,11.02
2022-10-30T14:15:44.459Z,12.05
2022-10-30T14:18:14.392Z,12.27
2022-10-30T14:20:44.450Z,9.13
2022-10-30T14:23:20.947Z,7.30
2022-10-30T14:26:03.338Z,12.15
2022-10-30T14:28:32.410Z,10.95
2022-10-30T14:31:13.940Z,13.02
2022-10-30T14:33:41.072Z,10.65
2022-10-30T14:36:17.566Z,16.15
2022-10-30T14:38:55.608Z,13.02
2022-10-30T14:41:36.223Z,11.60
2022-10-30T14:44:50.380Z,12.15
2022-10-30T14:47:34.681Z,7.88
2022-10-30T14:50:21.760Z,15.05
2022-10-30T14:53:11.417Z,10.38
2022-10-30T14:56:07.534Z,11.60
2022-10-30T14:58:37.745Z,13.10
2022-10-30T15:01:04.900Z,12.80
2022-10-30T15:04:12.873Z,9.35
2022-10-30T15:07:04.239Z,16.30
2022-10-30T15:10:17.284Z,11.32
2022-10-30T15:12:55.813Z,9.85
2022-10-30T15:15:25.653Z,10.75
2022-10-30T15:17:59.888Z,22.45
2022-10-30T15:20:31.834Z,26.63
2022-10-30T15:23:05.163Z,20.15
2022-10-30T15:25:38.340Z,17.92
2022-10-30T15:28:05.978Z,21.50
2022-10-30T15:30:32.899Z,11.07
2022-10-30T15:33:00.106Z,15.18
2022-10-30T15:35:29.168Z,16.55
2022-10-30T15:38:06.800Z,18.35
2022-10-30T15:40:38.416Z,19.13
2022-10-30T15:43:10.823Z,16.50
2022-10-30T15:45:42.927Z,22.67
2022-10-30T15:48:25.595Z,14.35
2022-10-30T15:51:14.325Z,15.45
2022-10-30T15:53:57.209Z,14.23
2022-10-30T15:57:06.807Z,24.92
2022-10-30T15:59:32.848Z,13.73
2022-10-30T16:01:59.914Z,16.13
2022-10-30T16:04:37.404Z,19.63
2022-10-30T16:07:19.983Z,15.63
2022-10-30T16:10:17.966Z,10.60
2022-10-30T16:12:45.283Z,18.20
2022-10-30T16:15:26.616Z,15.38
2022-10-30T16:18:26.769Z,18.05
2022-10-30T16:21:22.754Z,18.13
2022-10-30T16:23:53.987Z,20.67
2022-10-30T16:26:39.363Z,21.13
2022-10-30T16:29:18.253Z,21.30
2022-10-30T16:31:51.710Z,22.05
2022-10-30T16:34:35.079Z,16.95
2022-10-30T16:37:05.222Z,19.88
2022-10-30T16:39:34.078Z,26.27
2022-10-30T16:42:01.601Z,20.58
2022-10-30T16:44:34.500Z,20.08
2022-10-30T16:47:17.013Z,26.52
2022-10-30T16:49:55.356Z,18.58
2022-10-30T16:52:29.096Z,21.80
2022-10-30T16:55:24.901Z,23.38
2022-10-30T16:57:57.964Z,26.30
2022-10-30T17:00:35.420Z,25.70
2022-10-30T17:03:10.923Z,26.75
2022-10-30T17:05:40.711Z,24.10
2022-10-30T17:08:33.467Z,24.73
2022-10-30T17:11:04.882Z,22.23
2022-10-30T17:13:33.060Z,23.67
2022-10-30T17:16:30.914Z,23.58
2022-10-30T17:19:01.142Z,17.60
2022-10-30T17:21:42.169Z,26.25
2022-10-30T17:24:23.790Z,30.92
2022-10-30T17:27:00.622Z,24.33
2022-10-30T17:29:36.946Z,41.85
2022-10-30T17:32:22.105Z,87.60
2022-10-30T17:35:13.616Z,83.13
2022-10-30T17:37:40.577Z,53.20
2022-10-30T17:40:08.046Z,35.65
2022-10-30T17:42:35.389Z,26.70
2022-10-30T17:45:02.424Z,28.13
2022-10-30T17:47:29.312Z,31.80
2022-10-30T17:49:56.289Z,34.15
2022-10-30T17:52:23.173Z,27.77
2022-10-30T17:54:50.030Z,32.05
2022-10-30T17:57:17.286Z,31.38
2022-10-30T17:59:44.310Z,25.42
2022-10-30T18:02:17.861Z,27.73
2022-10-30T18:04:45.829Z,27.75
2022-10-30T18:07:15.338Z,33.50
2022-10-30T18:09:43.570Z,33.97
2022-10-30T18:12:19.225Z,37.80
2022-10-30T18:14:46.670Z,34.67
2022-10-30T18:17:13.504Z,32.15
2022-10-30T18:19:40.645Z,31.90
2022-10-30T18:22:09.497Z,33.58
2022-10-30T18:24:36.429Z,30.38
2022-10-30T18:27:05.291Z,26.80
2022-10-30T18:29:32.299Z,31.40
2022-10-30T18:32:06.918Z,42.22
2022-10-30T18:34:41.692Z,31.27
2022-10-30T18:37:09.405Z,62.03
2022-10-30T18:42:09.533Z,38.30
2022-10-30T18:44:36.507Z,34.35
2022-10-30T18:50:01.794Z,35.33
2022-10-30T18:52:31.047Z,37.78
2022-10-30T18:54:57.909Z,36.83
2022-10-30T18:57:55.137Z,34.15
2022-10-30T19:00:25.041Z,40.25
2022-10-30T19:02:52.894Z,49.40
2022-10-30T19:05:45.639Z,38.97
2022-10-30T19:08:13.425Z,39.70
2022-10-30T19:10:44.601Z,43.33
2022-10-30T19:16:33.369Z,37.50
2022-10-30T19:19:00.466Z,40.58
2022-10-30T19:21:27.980Z,47.17
2022-10-30T19:23:56.236Z,42.22
2022-10-30T19:26:23.178Z,51.30
2022-10-30T19:28:50.439Z,55.17
2022-10-30T19:31:19.766Z,49.00
2022-10-30T19:33:51.387Z,43.70
2022-10-30T19:36:39.657Z,44.47
2022-10-30T19:39:18.459Z,46.20
2022-10-30T19:41:45.794Z,45.40
2022-10-30T19:44:12.637Z,49.25
2022-10-30T19:46:39.644Z,48.05
2022-10-30T19:49:18.187Z,51.05
2022-10-30T19:51:45.296Z,58.20
2022-10-30T19:54:12.239Z,61.20
2022-10-30T19:56:39.579Z,63.35
2022-10-30T19:59:10.976Z,52.42
2022-10-30T20:01:38.091Z,54.50
2022-10-30T20:04:05.209Z,48.50
2022-10-30T20:06:32.094Z,54.80
2022-10-30T20:09:02.346Z,55.20
2022-10-30T20:11:30.256Z,54.63
2022-10-30T20:13:57.143Z,53.13
2022-10-30T20:16:24.079Z,47.35
2022-10-30T20:18:50.982Z,60.33
2022-10-30T20:21:19.598Z,48.35
2022-10-30T20:23:46.777Z,49.50
2022-10-30T20:26:28.519Z,48.58
2022-10-30T20:28:56.444Z,45.63
2022-10-30T20:31:23.706Z,45.33
2022-10-30T20:33:50.639Z,46.85
2022-10-30T20:36:17.468Z,43.78
2022-10-30T20:38:44.549Z,48.10
2022-10-30T20:41:22.843Z,51.10
2022-10-30T20:43:50.535Z,45.47
2022-10-30T20:46:18.185Z,45.08
2022-10-30T20:48:45.557Z,41.58
2022-10-30T20:51:12.973Z,39.47
2022-10-30T20:53:39.915Z,49.97
2022-10-30T20:56:07.136Z,45.95
2022-10-30T20:58:34.040Z,40.03
2022-10-30T21:01:00.948Z,48.53
2022-10-30T21:03:28.579Z,41.22
2022-10-30T21:05:58.965Z,42.90
2022-10-30T21:08:34.090Z,44.25
2022-10-30T21:11:03.395Z,40.22
2022-10-30T21:13:33.739Z,38.42
2022-10-30T21:16:04.243Z,41.55
2022-10-30T21:18:31.439Z,43.83
2022-10-30T21:21:08.384Z,42.80
2022-10-30T21:23:35.495Z,41.40
2022-10-30T21:26:06.302Z,40.95
2022-10-30T21:28:34.054Z,49.55
2022-10-30T21:31:02.852Z,41.33
2022-10-30T21:33:31.841Z,49.03
2022-10-30T21:36:13.615Z,40.22
2022-10-30T21:38:43.205Z,42.00
2022-10-30T21:41:14.456Z,42.17
2022-10-30T21:43:41.995Z,44.92
2022-10-30T21:46:12.192Z,43.28
2022-10-30T21:48:40.119Z,45.78
2022-10-30T21:51:21.017Z,48.90
2022-10-30T21:53:48.719Z,45.22
2022-10-30T21:56:22.022Z,48.65
2022-10-30T21:58:50.353Z,43.85
2022-10-30T22:01:22.786Z,43.05
2022-10-30T22:03:50.350Z,49.00
2022-10-30T22:06:19.800Z,42.33
2022-10-30T22:08:49.476Z,44.88
2022-10-30T22:11:17.326Z,41.88
2022-10-30T22:13:44.395Z,44.20
2022-10-30T22:16:14.325Z,46.58
2022-10-30T22:18:41.727Z,45.33
2022-10-30T22:21:11.770Z,42.13
2022-10-30T22:23:40.384Z,45.13
2022-10-30T22:26:12.512Z,47.90
2022-10-30T22:28:39.508Z,49.97
2022-10-30T22:31:12.474Z,48.17
2022-10-30T22:33:40.418Z,42.50
2022-10-30T22:36:11.576Z,44.10
2022-10-30T22:38:38.497Z,47.85
2022-10-30T22:41:11.568Z,39.65
2022-10-30T22:43:39.755Z,44.08
2022-10-30T22:46:06.995Z,43.53
2022-10-30T22:48:34.132Z,41.83
2022-10-30T22:51:04.312Z,44.13
2022-10-30T22:53:33.132Z,45.15
2022-10-30T22:56:10.457Z,37.55
2022-10-30T22:58:37.376Z,36.30
2022-10-30T23:01:26.358Z,41.63
2022-10-30T23:03:56.598Z,34.60
2022-10-30T23:06:24.097Z,43.38
2022-10-30T23:08:58.159Z,39.15
2022-10-30T23:11:25.855Z,43.83
2022-10-30T23:13:52.716Z,37.92
2022-10-30T23:16:22.864Z,39.95
2022-10-30T23:18:50.792Z,39.42
2022-10-30T23:21:21.423Z,42.30
2022-10-30T23:23:49.498Z,38.67
2022-10-30T23:26:22.814Z,37.13
2022-10-30T23:28:52.549Z,40.47
2022-10-30T23:31:38.418Z,37.58
2022-10-30T23:34:14.038Z,36.67
2022-10-30T23:36:42.830Z,42.50
2022-10-30T23:39:17.948Z,40.92
2022-10-30T23:41:45.077Z,37.80
2022-10-30T23:44:14.464Z,35.63
2022-10-30T23:46:42.171Z,35.47
2022-10-30T23:49:09.010Z,41.15
2022-10-30T23:51:36.058Z,35.28
2022-10-30T23:54:03.257Z,40.58
2022-10-30T23:56:30.324Z,37.65
2022-10-30T23:58:57.698Z,36.92
